Time;durP1;ratioP1;P1;durP2;ratioP2;P2;SDS_P1;SDS_P2;PMS_P1;PMS_P2;Temp;Humidity;BMP_temperature;BMP_pressure;BME280_temperature;BME280_humidity;BME280_pressure;Samples;Min_cycle;Max_cycle;Signal;HPM_P1;HPM_P2
2023/05/20 00:00:34;;;;;;;10.02;3.25;;;;;;;10.27;64.72;101470.75;4997393;28;20045;-60
2023/05/20 00:03:00;;;;;;;12.15;4.35;;;;;;;10.24;64.78;101468.97;4997014;28;20465;-58
2023/05/20 00:05:27;;;;;;;11.07;3.65;;;;;;;10.23;64.50;101468.97;4998215;28;20049;-55
2023/05/20 00:07:54;;;;;;;12.80;4.07;;;;;;;10.20;64.57;101474.91;5000484;28;20053;-54
2023/05/20 00:10:20;;;;;;;15.10;4.65;;;;;;;10.18;64.86;101471.44;5006286;28;20390;-56
2023/05/20 00:12:47;;;;;;;12.93;3.60;;;;;;;10.16;64.97;101468.81;5003830;28;20041;-60
2023/05/20 00:15:14;;;;;;;11.50;3.75;;;;;;;10.14;64.47;101469.63;5007048;28;20046;-56
2023/05/20 00:17:40;;;;;;;11.23;4.15;;;;;;;10.12;64.36;101476.47;5000313;28;20782;-52
2023/05/20 00:20:07;;;;;;;11.27;3.50;;;;;;;10.11;64.70;101475.63;5001260;28;20054;-61
2023/05/20 00:22:35;;;;;;;11.82;4.15;;;;;;;10.10;64.55;101485.94;5001410;28;20048;-59
2023/05/20 00:25:03;;;;;;;13.32;4.10;;;;;;;10.08;64.72;101480.72;5016428;28;20052;-56
2023/05/20 00:27:31;;;;;;;13.02;4.13;;;;;;;10.07;65.00;101480.69;5019866;28;20054;-59
2023/05/20 00:29:59;;;;;;;15.40;4.40;;;;;;;10.02;64.73;101481.44;5014331;28;20053;-53
2023/05/20 00:32:27;;;;;;;13.18;4.50;;;;;;;9.99;65.10;101475.31;5013280;28;20133;-61
2023/05/20 00:34:57;;;;;;;13.82;4.72;;;;;;;9.95;65.01;101483.84;5011290;28;20041;-59
2023/05/20 00:37:26;;;;;;;10.38;3.38;;;;;;;9.93;65.40;101470.00;5012381;28;20103;-58
2023/05/20 00:39:54;;;;;;;14.18;3.97;;;;;;;9.90;65.50;101470.81;5006959;28;20050;-56
2023/05/20 00:42:25;;;;;;;8.15;4.00;;;;;;;9.89;65.20;101476.81;5007210;28;20069;-59
2023/05/20 00:44:55;;;;;;;9.15;3.95;;;;;;;9.85;65.61;101472.41;5012705;28;20046;-55
2023/05/20 00:47:28;;;;;;;10.70;4.10;;;;;;;9.82;65.48;101472.34;5006441;28;20045;-59
2023/05/20 00:49:59;;;;;;;16.70;4.32;;;;;;;9.80;65.48;101468.84;5008984;28;20132;-57
2023/05/20 00:52:32;;;;;;;10.25;4.25;;;;;;;9.79;65.09;101467.09;5004434;28;20437;-57
2023/05/20 00:55:00;;;;;;;10.77;4.22;;;;;;;9.76;65.77;101457.53;5011311;28;20152;-58
2023/05/20 00:57:29;;;;;;;14.32;3.88;;;;;;;9.74;65.41;101465.28;5009922;28;20049;-60
2023/05/20 00:59:57;;;;;;;20.27;3.50;;;;;;;9.72;65.54;101461.78;5006518;28;20076;-58
2023/05/20 01:02:24;;;;;;;10.70;3.92;;;;;;;9.70;66.37;101463.47;5006268;28;20048;-57
2023/05/20 01:04:51;;;;;;;8.82;3.47;;;;;;;9.68;65.65;101461.66;4999775;28;20038;-57
2023/05/20 01:07:18;;;;;;;8.50;3.42;;;;;;;9.66;65.82;101461.63;4999854;28;20054;-58
2023/05/20 01:09:45;;;;;;;15.30;3.85;;;;;;;9.61;66.11;101468.41;5000451;28;20069;-60
2023/05/20 01:12:24;;;;;;;13.05;4.07;;;;;;;9.58;65.50;101455.41;5000950;28;20057;-63
2023/05/20 01:15:06;;;;;;;11.60;4.15;;;;;;;9.54;65.78;101456.16;4999470;28;20050;-58
2023/05/20 01:17:37;;;;;;;12.98;3.67;;;;;;;9.55;65.69;101453.63;4999718;28;20054;-61
2023/05/20 01:20:08;;;;;;;11.75;3.42;;;;;;;9.52;65.79;101454.41;4998413;28;20172;-54
2023/05/20 01:22:38;;;;;;;9.73;3.30;;;;;;;9.49;66.27;101451.75;4998930;28;20643;-55
2023/05/20 01:25:04;;;;;;;16.38;4.05;;;;;;;9.46;65.77;101448.22;5009363;28;20064;-56
2023/05/20 01:27:31;;;;;;;11.00;3.15;;;;;;;9.42;66.11;101441.22;5010807;28;20058;-55
2023/05/20 01:29:58;;;;;;;11.32;3.50;;;;;;;9.41;65.93;101442.94;5011621;28;20053;-60
2023/05/20 01:32:37;;;;;;;13.52;3.63;;;;;;;9.34;66.10;101443.63;5010258;28;20054;-57
2023/05/20 01:35:06;;;;;;;9.13;2.88;;;;;;;9.34;66.38;101438.44;5004701;28;20046;-55
2023/05/20 01:37:37;;;;;;;11.65;3.10;;;;;;;9.32;66.16;101442.72;5009401;28;20050;-52
2023/05/20 01:40:06;;;;;;;13.00;3.53;;;;;;;9.29;66.86;101450.41;5000579;28;20046;-56
2023/05/20 01:42:35;;;;;;;8.00;3.28;;;;;;;9.25;66.46;101439.97;5006814;28;20045;-58
2023/05/20 01:45:02;;;;;;;9.77;3.70;;;;;;;9.24;66.48;101443.41;5005214;28;20046;-63
2023/05/20 01:47:30;;;;;;;11.48;3.63;;;;;;;9.22;66.68;101437.31;5002684;28;20050;-58
2023/05/20 01:49:56;;;;;;;8.98;4.25;;;;;;;9.21;66.65;101435.56;5003471;28;20038;-59
2023/05/20 01:52:24;;;;;;;11.65;4.03;;;;;;;9.19;66.91;101439.81;5011968;28;20069;-56
2023/05/20 01:54:50;;;;;;;11.80;3.50;;;;;;;9.16;66.97;101434.56;5006982;28;20075;-56
2023/05/20 01:57:18;;;;;;;11.32;3.67;;;;;;;9.15;66.63;101427.63;5009811;28;20104;-57
2023/05/20 01:59:45;;;;;;;17.17;4.47;;;;;;;9.13;67.00;101429.31;5008807;28;20046;-55
2023/05/20 02:02:13;;;;;;;14.57;4.32;;;;;;;9.12;66.81;101437.91;4994642;28;20050;-58
2023/05/20 02:04:42;;;;;;;12.18;3.63;;;;;;;9.09;67.41;101436.09;5003453;28;20430;-55
2023/05/20 02:07:09;;;;;;;10.80;3.83;;;;;;;9.07;67.27;101434.31;4999558;28;20060;-61
2023/05/20 02:09:36;;;;;;;9.20;3.88;;;;;;;9.06;67.03;101432.59;4997102;28;20060;-59
2023/05/20 02:12:04;;;;;;;7.15;2.85;;;;;;;9.04;67.41;101434.25;5003159;28;20041;-53
2023/05/20 02:14:30;;;;;;;12.25;3.33;;;;;;;8.99;67.44;101432.41;5008591;28;20038;-56
2023/05/20 02:16:57;;;;;;;8.57;3.40;;;;;;;8.97;67.42;101434.09;5002918;28;20049;-58
2023/05/20 02:19:24;;;;;;;12.25;4.18;;;;;;;8.95;67.59;101430.59;5001315;28;20054;-57
2023/05/20 02:21:50;;;;;;;13.30;3.88;;;;;;;8.91;67.95;101428.75;5000422;28;20054;-55
2023/05/20 02:24:17;;;;;;;10.60;3.67;;;;;;;8.89;67.36;101425.28;4997610;28;20042;-58
2023/05/20 02:26:45;;;;;;;9.05;3.72;;;;;;;8.87;67.57;101426.94;5004991;28;20054;-53
2023/05/20 02:29:12;;;;;;;31.92;3.78;;;;;;;8.82;67.07;101418.19;5007371;28;20676;-56
2023/05/20 02:31:38;;;;;;;28.55;3.10;;;;;;;8.80;67.90;101419.84;5002254;28;20624;-60
2023/05/20 02:34:05;;;;;;;18.23;3.45;;;;;;;8.77;67.79;101419.75;5006104;28;20037;-58
2023/05/20 02:36:32;;;;;;;8.32;3.10;;;;;;;8.73;68.06;101417.13;5005356;28;20042;-57
2023/05/20 02:39:00;;;;;;;7.70;3.30;;;;;;;8.72;67.18;101420.50;5007515;28;20058;-56
2023/05/20 02:41:26;;;;;;;7.70;3.53;;;;;;;8.69;67.11;101420.44;5003233;28;20757;-54
2023/05/20 02:43:53;;;;;;;10.60;3.03;;;;;;;8.68;67.92;101426.41;5011364;28;20042;-56
2023/05/20 02:46:20;;;;;;;10.98;3.53;;;;;;;8.65;67.27;101421.16;5008864;28;20052;-56
2023/05/20 02:48:46;;;;;;;8.02;3.35;;;;;;;8.65;67.62;101426.34;5005078;28;20042;-61
2023/05/20 02:51:13;;;;;;;6.57;2.97;;;;;;;8.63;67.28;101420.28;5005323;28;20049;-60
2023/05/20 02:53:40;;;;;;;9.35;3.22;;;;;;;8.62;67.10;101421.09;5006063;28;20092;-60
2023/05/20 02:56:07;;;;;;;7.72;3.28;;;;;;;8.61;67.48;101420.22;5008171;28;20053;-56
2023/05/20 02:58:34;;;;;;;9.90;3.33;;;;;;;8.60;67.55;101417.59;5005973;28;20056;-58
2023/05/20 03:01:01;;;;;;;9.95;3.10;;;;;;;8.58;68.14;101414.13;5013177;28;20048;-57
2023/05/20 03:03:28;;;;;;;8.82;3.25;;;;;;;8.55;67.61;101414.88;5003163;28;20049;-58
2023/05/20 03:05:54;;;;;;;13.60;3.72;;;;;;;8.54;67.91;101412.28;5003739;28;20536;-56
2023/05/20 03:08:22;;;;;;;9.73;3.28;;;;;;;8.53;67.83;101415.63;5006063;28;20062;-61
2023/05/20 03:10:49;;;;;;;9.00;3.55;;;;;;;8.51;67.82;101412.16;5006101;28;20761;-58
2023/05/20 03:13:16;;;;;;;9.60;3.38;;;;;;;8.49;67.12;101415.53;4998436;28;20774;-58
2023/05/20 03:15:44;;;;;;;10.85;3.55;;;;;;;8.48;67.43;101407.78;4998268;28;20046;-59
2023/05/20 03:18:12;;;;;;;10.80;4.05;;;;;;;8.44;67.76;101411.97;5003594;28;20053;-57
2023/05/20 03:20:40;;;;;;;10.13;3.80;;;;;;;8.43;67.96;101414.50;4996266;28;20050;-57
2023/05/20 03:23:07;;;;;;;10.75;3.55;;;;;;;8.40;67.77;101410.13;4997408;28;20713;-61
2023/05/20 03:25:35;;;;;;;7.32;3.83;;;;;;;8.40;68.12;101412.72;4998441;28;20050;-57
2023/05/20 03:28:02;;;;;;;10.02;3.08;;;;;;;8.36;67.85;101404.03;5000516;28;20056;-53
2023/05/20 03:30:29;;;;;;;11.65;3.88;;;;;;;8.38;68.37;101416.97;4999816;28;20058;-53
2023/05/20 03:32:57;;;;;;;16.85;4.20;;;;;;;8.39;67.90;101412.69;5005686;28;20512;-60
2023/05/20 03:35:24;;;;;;;10.88;3.95;;;;;;;8.37;67.77;101410.03;5011295;28;20042;-59
2023/05/20 03:37:52;;;;;;;15.25;3.65;;;;;;;8.37;68.44;101402.31;5008280;28;20041;-53
2023/05/20 03:40:20;;;;;;;13.50;3.65;;;;;;;8.36;68.49;101408.31;5005395;28;20074;-52
2023/05/20 03:42:47;;;;;;;7.03;3.10;;;;;;;8.35;67.71;101409.16;5013554;28;20493;-58
2023/05/20 03:45:13;;;;;;;8.07;3.63;;;;;;;8.32;67.43;101409.94;5010035;28;20045;-58
2023/05/20 03:47:40;;;;;;;9.73;3.42;;;;;;;8.29;68.14;101411.53;5015512;28;20050;-59
2023/05/20 03:50:07;;;;;;;8.90;3.75;;;;;;;8.25;68.52;101407.13;5011329;28;20056;-60
2023/05/20 03:52:33;;;;;;;8.30;3.00;;;;;;;8.21;67.69;101404.44;5010540;28;20048;-58
2023/05/20 03:55:00;;;;;;;8.20;3.28;;;;;;;8.19;68.15;101406.13;5013939;28;20456;-58
2023/05/20 03:57:28;;;;;;;12.32;3.38;;;;;;;8.17;68.40;101407.78;5008657;28;20054;-58
2023/05/20 03:59:55;;;;;;;13.68;3.20;;;;;;;8.14;68.02;101399.94;5014447;28;20119;-57
2023/05/20 04:02:21;;;;;;;8.02;3.20;;;;;;;8.14;68.61;101401.66;5003701;28;20043;-60
2023/05/20 04:04:51;;;;;;;12.13;3.53;;;;;;;8.13;67.65;101405.94;5002901;28;20092;-57
2023/05/20 04:07:18;;;;;;;10.82;3.15;;;;;;;8.13;67.98;101405.94;5007170;28;20060;-63
2023/05/20 04:09:45;;;;;;;11.60;3.60;;;;;;;8.13;68.87;101403.34;5003288;28;20053;-56
2023/05/20 04:12:12;;;;;;;11.60;3.65;;;;;;;8.12;67.41;101399.03;5008711;28;20049;-63
2023/05/20 04:14:41;;;;;;;7.63;3.60;;;;;;;8.11;67.77;101407.59;5003753;28;20046;-60
2023/05/20 04:17:08;;;;;;;9.80;3.65;;;;;;;8.10;68.42;101400.69;4999944;28;20073;-56
2023/05/20 04:19:37;;;;;;;8.40;4.05;;;;;;;8.08;68.63;101408.38;5003318;28;20690;-58
2023/05/20 04:22:03;;;;;;;9.25;3.47;;;;;;;8.08;68.82;101403.22;5000877;28;20042;-58
2023/05/20 04:24:30;;;;;;;10.48;3.25;;;;;;;8.09;68.29;101411.84;5001924;28;20562;-61
2023/05/20 04:26:57;;;;;;;11.57;3.67;;;;;;;8.07;68.21;101416.09;5008844;28;20046;-61
2023/05/20 04:29:24;;;;;;;9.60;3.60;;;;;;;8.07;67.72;101409.22;5010019;28;20343;-58
2023/05/20 04:31:51;;;;;;;10.90;3.70;;;;;;;8.05;67.81;101407.41;5008733;28;20038;-59
2023/05/20 04:34:19;;;;;;;9.27;3.35;;;;;;;8.04;68.80;101406.53;5002436;28;20038;-57
2023/05/20 04:36:45;;;;;;;32.08;3.30;;;;;;;8.02;68.15;101410.78;5008890;28;20650;-59
2023/05/20 04:39:12;;;;;;;22.88;3.38;;;;;;;8.02;68.00;101407.31;5006775;28;20050;-59
2023/05/20 04:41:39;;;;;;;31.85;3.60;;;;;;;8.02;67.81;101402.16;5007789;28;20045;-55
2023/05/20 04:44:06;;;;;;;11.75;3.08;;;;;;;8.02;67.36;101412.47;5008851;28;20042;-60
2023/05/20 04:46:32;;;;;;;14.77;2.85;;;;;;;8.01;68.58;101411.63;5011100;28;20038;-54
2023/05/20 04:48:59;;;;;;;39.88;3.40;;;;;;;8.03;67.33;101411.63;5010603;28;20061;-58
2023/05/20 04:51:26;;;;;;;13.55;3.20;;;;;;;8.01;68.61;101409.03;5006299;28;20045;-56
2023/05/20 04:53:52;;;;;;;15.45;3.45;;;;;;;8.02;68.39;101409.91;5007137;28;20054;-61
2023/05/20 04:56:19;;;;;;;13.82;2.58;;;;;;;8.03;67.99;101409.06;5003016;28;20046;-53
2023/05/20 04:58:46;;;;;;;8.20;2.95;;;;;;;8.03;68.81;101409.06;5003724;28;20125;-56
2023/05/20 05:01:12;;;;;;;7.80;3.78;;;;;;;8.03;68.35;101402.22;5003309;28;20149;-55
2023/05/20 05:03:39;;;;;;;7.68;3.55;;;;;;;8.07;68.59;101403.19;4997759;28;20053;-57
2023/05/20 05:06:06;;;;;;;12.20;3.08;;;;;;;8.09;68.66;101401.50;5007576;28;20629;-58
2023/05/20 05:08:32;;;;;;;10.00;3.53;;;;;;;8.13;68.21;101407.63;5005946;28;20049;-57
2023/05/20 05:10:59;;;;;;;11.02;4.05;;;;;;;8.18;68.43;101404.34;5003740;28;20061;-60
2023/05/20 05:13:26;;;;;;;11.07;4.38;;;;;;;8.24;69.26;101408.81;4999216;28;20050;-57
2023/05/20 05:16:01;;;;;;;9.75;3.88;;;;;;;8.30;68.73;101405.53;4999854;28;20062;-58
2023/05/20 05:18:27;;;;;;;10.48;4.35;;;;;;;8.37;68.74;101407.47;5005404;28;20073;-62
2023/05/20 05:20:59;;;;;;;12.65;4.93;;;;;;;8.44;70.09;101404.22;4999355;28;20486;-60
2023/05/20 05:23:26;;;;;;;12.88;4.45;;;;;;;8.54;69.88;101400.22;5000190;28;20050;-61
2023/05/20 05:25:53;;;;;;;13.88;4.57;;;;;;;8.61;69.83;101398.69;4998814;28;20053;-60
2023/05/20 05:28:20;;;;;;;12.35;4.63;;;;;;;8.67;69.46;101403.13;5008268;28;20053;-63
2023/05/20 05:30:47;;;;;;;13.95;4.97;;;;;;;8.72;70.20;101391.25;5006526;28;20448;-60
2023/05/20 05:33:14;;;;;;;11.82;4.88;;;;;;;8.79;69.89;101397.44;5013143;28;20059;-60
2023/05/20 05:35:42;;;;;;;13.20;4.13;;;;;;;8.83;70.61;101397.56;5004644;28;20049;-56
2023/05/20 05:38:09;;;;;;;11.68;4.28;;;;;;;8.91;70.16;101405.50;5005818;28;20498;-58
2023/05/20 05:40:36;;;;;;;10.88;4.07;;;;;;;8.96;70.28;101400.47;5010516;28;20050;-56
2023/05/20 05:43:02;;;;;;;8.65;3.53;;;;;;;8.98;70.34;101394.50;5010642;28;20045;-59
2023/05/20 05:45:29;;;;;;;10.35;4.50;;;;;;;9.04;69.96;101398.06;5010835;28;20046;-60
2023/05/20 05:47:56;;;;;;;9.88;4.05;;;;;;;9.13;69.85;101398.31;5009144;28;20050;-56
2023/05/20 05:50:23;;;;;;;9.13;4.32;;;;;;;9.25;69.97;101403.78;5004107;28;20463;-58
2023/05/20 05:52:49;;;;;;;10.48;4.18;;;;;;;9.36;70.32;101400.59;5005143;28;20056;-58
2023/05/20 05:55:17;;;;;;;11.15;4.60;;;;;;;9.46;70.24;101397.34;5005030;28;20050;-60
2023/05/20 05:57:44;;;;;;;14.73;4.45;;;;;;;9.64;70.56;101402.13;5007214;28;20589;-60
2023/05/20 06:00:11;;;;;;;13.05;4.40;;;;;;;9.85;70.21;101405.13;5006389;28;20050;-61
2023/05/20 06:02:37;;;;;;;14.00;4.47;;;;;;;10.04;70.28;101409.00;5005722;28;20045;-57
2023/05/20 06:05:05;;;;;;;9.40;4.25;;;;;;;10.24;70.47;101401.63;4999820;28;20077;-63
2023/05/20 06:07:31;;;;;;;9.27;3.50;;;;;;;10.40;69.75;101404.53;4996176;28;20053;-59
2023/05/20 06:09:58;;;;;;;12.82;3.83;;;;;;;10.59;70.71;101389.38;5008200;28;20120;-61
2023/05/20 06:12:25;;;;;;;12.45;3.97;;;;;;;10.79;70.49;101397.53;5014433;28;20049;-61
2023/05/20 06:14:51;;;;;;;11.57;4.63;;;;;;;10.95;69.23;101387.44;5005146;28;20042;-58
2023/05/20 06:17:18;;;;;;;8.75;3.38;;;;;;;11.05;69.11;101392.78;5002912;28;20136;-63
2023/05/20 06:19:45;;;;;;;8.32;3.53;;;;;;;11.19;69.35;101392.16;5004965;28;20604;-59
2023/05/20 06:22:11;;;;;;;8.82;2.85;;;;;;;11.28;69.67;101391.44;5003053;28;20112;-59
2023/05/20 06:24:38;;;;;;;8.65;3.08;;;;;;;11.38;69.59;101397.66;5005172;28;20054;-54
2023/05/20 06:27:04;;;;;;;8.07;3.25;;;;;;;11.37;68.16;101390.69;5004685;28;20054;-57
2023/05/20 06:29:31;;;;;;;8.40;3.35;;;;;;;11.38;69.20;101387.28;5004190;28;20053;-63
2023/05/20 06:31:58;;;;;;;7.68;3.05;;;;;;;11.37;68.16;101388.09;5006162;28;20041;-62
2023/05/20 06:34:25;;;;;;;7.95;3.03;;;;;;;11.37;67.99;101380.31;5005266;28;20054;-57
2023/05/20 06:36:52;;;;;;;9.55;3.28;;;;;;;11.38;68.03;101382.94;5008430;28;20049;-59
2023/05/20 06:39:18;;;;;;;9.05;3.15;;;;;;;11.45;68.17;101381.31;5002673;28;20063;-58
2023/05/20 06:41:46;;;;;;;9.73;3.92;;;;;;;11.53;68.84;101384.91;5005565;28;20050;-62
2023/05/20 06:44:12;;;;;;;9.98;3.10;;;;;;;11.62;67.47;101380.72;5001685;28;20521;-56
2023/05/20 06:46:39;;;;;;;8.75;3.63;;;;;;;11.69;67.81;101382.53;5009878;28;20053;-62
2023/05/20 06:49:05;;;;;;;8.70;3.60;;;;;;;11.78;68.24;101380.06;5007221;28;20100;-61
2023/05/20 06:51:32;;;;;;;9.15;3.97;;;;;;;12.12;69.11;101376.22;4998857;28;20041;-61
2023/05/20 06:53:59;;;;;;;13.48;3.40;;;;;;;12.41;68.64;101373.06;5005919;28;20088;-61
2023/05/20 06:56:26;;;;;;;9.70;3.45;;;;;;;12.71;68.85;101376.84;5005745;28;20037;-58
2023/05/20 06:58:54;;;;;;;10.60;4.03;;;;;;;12.94;67.10;101373.59;5008022;28;20052;-59
2023/05/20 07:01:20;;;;;;;7.22;3.28;;;;;;;13.04;67.21;101369.34;4995877;28;20050;-62
2023/05/20 07:03:47;;;;;;;8.02;3.17;;;;;;;13.09;66.17;101371.09;5003558;28;20050;-60
2023/05/20 07:06:14;;;;;;;8.70;4.03;;;;;;;13.14;67.32;101365.06;5004687;28;20046;-61
2023/05/20 07:08:40;;;;;;;9.98;3.80;;;;;;;13.28;66.77;101366.06;5004295;28;20061;-61
2023/05/20 07:11:07;;;;;;;11.13;3.20;;;;;;;13.45;66.79;101365.28;5004591;28;20053;-58
2023/05/20 07:13:34;;;;;;;10.95;3.25;;;;;;;13.60;67.02;101367.13;5007636;28;20049;-56
2023/05/20 07:16:01;;;;;;;9.45;3.05;;;;;;;13.93;66.63;101367.31;5007031;28;20068;-62
2023/05/20 07:18:28;;;;;;;8.10;3.47;;;;;;;14.20;65.48;101360.47;5009329;28;20081;-60
2023/05/20 07:20:55;;;;;;;9.05;3.15;;;;;;;14.61;66.34;101358.81;5019097;28;20049;-56
2023/05/20 07:23:23;;;;;;;10.45;3.45;;;;;;;14.99;65.44;101358.00;5009649;28;20052;-60
2023/05/20 07:25:49;;;;;;;8.10;3.15;;;;;;;15.35;65.43;101360.59;5019667;28;20061;-59
2023/05/20 07:28:16;;;;;;;12.07;3.92;;;;;;;15.75;64.46;101363.97;5010437;28;20512;-58
2023/05/20 07:30:48;;;;;;;8.10;2.55;;;;;;;16.00;63.33;101356.06;5013235;28;20513;-58
2023/05/20 07:33:16;;;;;;;10.80;3.08;;;;;;;16.27;62.86;101367.28;5008308;28;20053;-58
2023/05/20 07:35:44;;;;;;;9.77;3.55;;;;;;;16.43;62.66;101355.88;5015284;28;20049;-57
2023/05/20 07:38:11;;;;;;;9.52;2.80;;;;;;;16.58;61.34;101367.09;5017841;28;20177;-57
2023/05/20 07:40:39;;;;;;;8.15;3.03;;;;;;;16.81;61.90;101363.44;5008123;28;20452;-57
2023/05/20 07:43:07;;;;;;;6.75;3.15;;;;;;;17.12;60.82;101362.38;5007966;28;20133;-56
2023/05/20 07:45:35;;;;;;;7.20;2.60;;;;;;;17.34;60.20;101368.25;5008098;28;20046;-56
2023/05/20 07:48:04;;;;;;;8.65;2.65;;;;;;;17.54;60.03;101354.97;5013206;28;20053;-58
2023/05/20 07:50:33;;;;;;;6.05;3.15;;;;;;;17.78;58.81;101362.53;5012708;28;20072;-57
2023/05/20 07:53:00;;;;;;;6.85;2.42;;;;;;;17.96;57.77;101367.56;5008571;28;20553;-58
2023/05/20 07:55:26;;;;;;;5.80;2.45;;;;;;;18.20;58.01;101368.16;5012225;28;20169;-56
2023/05/20 07:57:53;;;;;;;8.50;2.60;;;;;;;18.43;57.31;101360.84;5010130;28;20056;-58
2023/05/20 08:00:20;;;;;;;6.93;2.90;;;;;;;18.55;56.55;101359.81;5009975;28;20100;-58
2023/05/20 08:02:46;;;;;;;4.93;2.10;;;;;;;18.61;55.62;101359.72;5006263;28;20048;-53
2023/05/20 08:05:13;;;;;;;8.15;2.47;;;;;;;18.73;55.30;101356.91;5007179;28;20050;-55
2023/05/20 08:07:40;;;;;;;8.75;2.92;;;;;;;18.85;55.29;101354.97;5007386;28;20046;-51
2023/05/20 08:10:07;;;;;;;6.07;2.50;;;;;;;19.00;55.19;101361.72;5008179;28;20046;-56
2023/05/20 08:12:34;;;;;;;8.27;2.60;;;;;;;19.14;54.98;101354.50;5007949;28;20045;-54
2023/05/20 08:15:01;;;;;;;6.60;2.80;;;;;;;19.30;54.31;101353.34;5003168;28;20053;-54
2023/05/20 08:17:28;;;;;;;7.18;2.70;;;;;;;19.39;53.55;101359.28;5005421;28;20172;-51
2023/05/20 08:19:55;;;;;;;6.88;2.70;;;;;;;19.47;53.42;101351.28;5005942;28;20056;-58
2023/05/20 08:22:22;;;;;;;9.20;2.92;;;;;;;19.57;52.43;101361.59;5005612;28;20100;-57
2023/05/20 08:24:48;;;;;;;8.35;2.95;;;;;;;19.60;51.97;101358.91;5005927;28;20085;-56
2023/05/20 08:27:15;;;;;;;6.10;2.65;;;;;;;19.68;52.12;101354.38;5006457;28;20092;-59
2023/05/20 08:29:44;;;;;;;6.25;2.50;;;;;;;19.75;51.68;101350.72;5005416;28;20112;-54
2023/05/20 08:32:10;;;;;;;5.70;2.78;;;;;;;19.89;51.49;101354.81;5005168;28;20049;-52
2023/05/20 08:34:37;;;;;;;6.65;2.30;;;;;;;19.99;50.47;101355.53;5008564;28;20046;-54
2023/05/20 08:37:04;;;;;;;5.93;2.25;;;;;;;20.11;50.67;101351.78;5005877;28;20046;-58
2023/05/20 08:39:31;;;;;;;7.40;3.97;;;;;;;20.29;50.84;101346.09;5003784;28;20050;-59
2023/05/20 08:42:01;;;;;;;6.00;2.28;;;;;;;20.41;50.64;101347.56;5008510;28;20049;-57
2023/05/20 08:44:29;;;;;;;9.02;2.97;;;;;;;20.52;49.87;101355.22;5005423;28;20054;-54
2023/05/20 08:46:56;;;;;;;4.13;2.33;;;;;;;20.67;49.75;101361.03;5005496;28;20050;-59
2023/05/20 08:49:23;;;;;;;7.80;2.33;;;;;;;20.84;48.91;101357.13;5008256;28;20413;-60
2023/05/20 08:51:50;;;;;;;7.03;2.42;;;;;;;20.94;48.66;101358.66;5005392;28;20061;-52
2023/05/20 08:54:19;;;;;;;8.00;2.13;;;;;;;20.95;47.48;101360.38;5005000;28;20422;-53
2023/05/20 08:56:46;;;;;;;5.82;2.38;;;;;;;20.95;47.76;101354.25;5011777;28;20049;-57
2023/05/20 08:59:14;;;;;;;7.20;2.30;;;;;;;20.88;47.38;101353.50;5007237;28;20065;-53
2023/05/20 09:01:42;;;;;;;5.70;2.80;;;;;;;20.81;47.19;101358.91;5008506;28;20037;-54
2023/05/20 09:04:09;;;;;;;7.45;2.70;;;;;;;20.89;47.89;101355.25;5008930;28;20057;-56
2023/05/20 09:06:45;;;;;;;7.68;3.00;;;;;;;21.02;47.30;101342.66;5005470;28;20053;-53
2023/05/20 09:09:13;;;;;;;6.35;2.72;;;;;;;21.17;47.43;101341.38;5005208;28;20145;-54
2023/05/20 09:11:41;;;;;;;5.30;2.80;;;;;;;21.39;47.06;101343.44;5009796;28;20049;-53
2023/05/20 09:14:08;;;;;;;7.53;2.63;;;;;;;21.46;46.07;101350.25;5007747;28;20121;-56
2023/05/20 09:16:35;;;;;;;6.70;2.15;;;;;;;21.53;46.09;101340.41;5008452;28;20038;-56
2023/05/20 09:19:05;;;;;;;5.55;2.40;;;;;;;21.68;45.79;101344.38;5007405;28;20589;-58
2023/05/20 09:21:32;;;;;;;7.03;2.70;;;;;;;21.79;45.96;101337.03;5007517;28;20137;-57
2023/05/20 09:24:01;;;;;;;8.75;2.95;;;;;;;21.78;44.42;101340.59;4998240;28;20045;-56
2023/05/20 09:26:28;;;;;;;5.80;2.35;;;;;;;21.86;44.14;101336.88;5018065;28;20117;-60
2023/05/20 09:28:56;;;;;;;5.32;2.33;;;;;;;21.77;44.04;101328.31;5001981;28;20049;-59
2023/05/20 09:31:29;;;;;;;5.25;2.80;;;;;;;21.82;45.18;101326.41;5001211;28;20049;-53
2023/05/20 09:33:56;;;;;;;5.68;2.50;;;;;;;21.86;44.67;101321.03;5007014;28;20116;-52
2023/05/20 09:36:25;;;;;;;7.82;2.80;;;;;;;21.80;43.13;101328.25;5008305;28;20108;-45
2023/05/20 09:38:56;;;;;;;5.25;2.60;;;;;;;21.77;44.38;101322.19;5006840;28;20049;-56
2023/05/20 09:41:31;;;;;;;5.35;2.88;;;;;;;21.99;45.15;101337.38;5008909;28;20406;-46
2023/05/20 09:43:59;;;;;;;9.32;4.18;;;;;;;21.94;44.00;101324.31;5008553;28;20045;-53
2023/05/20 09:46:26;;;;;;;5.72;2.88;;;;;;;21.95;43.75;101326.03;5008253;28;20049;-55
2023/05/20 09:48:53;;;;;;;6.20;2.53;;;;;;;22.01;43.58;101315.31;5004265;28;20050;-53
2023/05/20 09:51:23;;;;;;;8.02;2.72;;;;;;;22.09;43.61;101308.00;5007039;28;20057;-50
2023/05/20 09:53:50;;;;;;;6.72;2.30;;;;;;;22.24;43.59;101310.22;5009135;28;20061;-54
2023/05/20 09:56:21;;;;;;;7.05;2.88;;;;;;;22.38;44.06;101307.13;5004236;28;20061;-58
2023/05/20 09:58:48;;;;;;;7.40;3.03;;;;;;;22.30;43.20;101310.91;5012669;28;20053;-56
2023/05/20 10:01:15;;;;;;;7.97;2.88;;;;;;;22.29;43.34;101308.31;5006663;28;20056;-57
2023/05/20 10:03:43;;;;;;;5.88;2.85;;;;;;;22.23;42.43;101304.09;5006848;28;20123;-60
2023/05/20 10:09:13;;;;;;;7.15;2.45;;;;;;;22.19;43.29;101302.47;5075003;27;20402;-51
2023/05/20 10:11:50;;;;;;;8.82;3.33;;;;;;;22.39;43.27;101308.88;5026639;28;20046;-55
2023/05/20 10:17:07;;;;;;;5.72;2.92;;;;;;;22.59;43.63;101306.47;5031021;27;20936;-53
2023/05/20 10:19:35;;;;;;;6.57;2.90;;;;;;;22.66;43.10;101306.28;5028998;28;20497;-51
2023/05/20 10:22:07;;;;;;;7.95;3.67;;;;;;;22.57;42.40;101310.94;5017256;28;20111;-54
2023/05/20 10:24:36;;;;;;;8.55;3.42;;;;;;;22.50;42.53;101296.19;5012331;28;20049;-52
2023/05/20 10:27:07;;;;;;;7.70;4.25;;;;;;;22.55;42.20;101299.53;5019030;28;20789;-56
2023/05/20 10:32:31;;;;;;;7.68;4.22;;;;;;;22.81;42.87;101289.91;5005242;28;20793;-52
2023/05/20 10:35:03;;;;;;;8.63;3.60;;;;;;;22.71;41.89;101288.50;4982160;28;20495;-49
2023/05/20 10:37:40;;;;;;;7.05;3.42;;;;;;;22.53;41.35;101288.16;4982183;28;20081;-53
2023/05/20 10:40:10;;;;;;;9.65;3.78;;;;;;;22.52;42.18;101278.50;4972987;28;20058;-55
2023/05/20 10:42:37;;;;;;;4.85;2.60;;;;;;;22.52;42.56;101277.66;4975386;28;20058;-52
2023/05/20 10:45:05;;;;;;;7.90;3.15;;;;;;;22.46;41.82;101278.75;4980294;28;20066;-55
2023/05/20 10:47:32;;;;;;;6.32;3.17;;;;;;;22.56;42.41;101280.16;4983579;28;20514;-52
2023/05/20 10:50:00;;;;;;;3.85;2.22;;;;;;;22.53;41.69;101280.22;5007199;28;20051;-55
2023/05/20 10:52:32;;;;;;;5.65;2.78;;;;;;;22.46;40.82;101274.28;4985347;28;20050;-52
2023/05/20 10:55:00;;;;;;;5.90;2.60;;;;;;;22.49;41.66;101268.06;4975374;28;20118;-55
2023/05/20 10:57:28;;;;;;;6.07;2.63;;;;;;;22.63;41.34;101269.41;4982646;28;20046;-52
2023/05/20 10:59:55;;;;;;;6.13;2.22;;;;;;;22.72;40.81;101263.81;4992323;28;20081;-55
2023/05/20 11:02:25;;;;;;;5.35;2.85;;;;;;;22.78;41.44;101266.25;4977762;28;20165;-50
2023/05/20 11:04:52;;;;;;;7.05;2.85;;;;;;;22.91;41.08;101252.59;4988017;28;20054;-56
2023/05/20 11:07:28;;;;;;;5.93;2.70;;;;;;;22.83;41.00;101250.25;4987284;28;20046;-54
2023/05/20 11:09:56;;;;;;;4.90;2.83;;;;;;;22.91;40.74;101253.47;4971961;28;20117;-50
2023/05/20 11:12:24;;;;;;;6.07;2.28;;;;;;;23.03;40.58;101248.66;4980226;28;20046;-52
2023/05/20 11:14:51;;;;;;;8.65;3.72;;;;;;;23.07;41.70;101242.34;4976488;28;20061;-59
2023/05/20 11:17:19;;;;;;;6.88;3.35;;;;;;;23.17;41.93;101246.34;5007142;28;20053;-52
2023/05/20 11:19:47;;;;;;;14.70;3.80;;;;;;;23.33;42.12;101249.31;5015762;28;20069;-51
2023/05/20 11:22:14;;;;;;;7.60;2.35;;;;;;;23.28;39.28;101245.09;4985986;28;20047;-49
2023/05/20 11:24:40;;;;;;;5.95;2.72;;;;;;;23.21;39.67;101239.19;4977144;28;20117;-53
2023/05/20 11:27:08;;;;;;;6.85;2.05;;;;;;;23.13;38.77;101241.25;4985463;28;20496;-48
2023/05/20 11:29:34;;;;;;;4.03;2.58;;;;;;;23.15;39.12;101239.41;4982067;28;20153;-56
2023/05/20 11:32:01;;;;;;;5.10;1.90;;;;;;;23.28;40.04;101234.53;4981221;28;20046;-49
2023/05/20 11:34:37;;;;;;;7.05;2.35;;;;;;;23.39;39.05;101226.22;4979114;28;20094;-52
2023/05/20 11:37:08;;;;;;;5.13;2.45;;;;;;;23.51;39.61;101224.91;4983917;28;20148;-53